Pagrindinis puslapis
METAR-TAF:

METAR-TAF

Oro uostai :

San Paulas-Congonhas, San Paulas, Brazilija

platuma: 23-37S, ilguma: 046-39W, Aukštis: 803 m

Dabartinis oras

Ataskaita buvo paskelbta 1 valandą ir 7 minutes, ne 20:00 UTC
Vėjas 9 kt iš Pietų/Pietryčių
Temperatūra 23°C
Drėgmė 78%
Slėgis 1016 hPa
Matomumas 10 km arba daugiau
Išsisklaidę debesys ne aukštis 1500 ft
Su prošvaistėmis ne aukštis 2100 ft

METAR: SBSP 212000Z 16009KT 9999 SCT015 BKN021 23/19 Q1016

Laikas: 18:07 (21:07 UTC)

Prognozė

Ataskaita buvo paskelbta 6 valandos ir 7 minutes, ne 15:00 UTC
Prognozė galioja nuo 21 metu 18 UTC su 22 metu 06 UTC
Vėjas 10 kt iš Pietų
Matomumas: 8000 m
Su prošvaistėmis ne aukštis 1500 ft
Tikimybė 40%
nuo 21 metu 19 UTC su 21 metu 23 UTC
Matomumas: 4000 m
Su prošvaistėmis ne aukštis 600 ft
lietus, rūkana
Tapsmas
nuo 22 metu 02 UTC su 22 metu 04 UTC
Vėjas 5 kt iš Pietryčių
Su prošvaistėmis ne aukštis 800 ft

TAF: SBSP 211500Z 2118/2206 17010KT 8000 BKN015 TX23/2118Z TN19/2206Z PROB40 2119/2123 4000 RA BR BKN006 BECMG 2202/2204 14005KT BKN008 RMK PGH

Orai ataskaitas ir orų prognozės (METAR, TAF).

turimą stotys yra geltonos ir raudonos taškus žemėlapyje.

Perkelti pele per norėdami pamatyti stoties vardą.

Tada spustelėkite, norėdami matyti oro stebėjimo ir prognozės.

Norėdami pakeisti žemėlapį: spustelėkite ant žalios mygtukų su juodo kryžiaus žemyn,; žalią mygtuką su brūkšneliu, jei norite nutolinti; arba žalių rodyklių gretimoms žemėlapius.


METAR-TAF: